sensor_id;sensor_type;location;lat;lon;timestamp;pressure;altitude;pressure_sealevel;temperature;humidity
52957;BME280;38819;42.692;23.342;2022-11-20T00:01:29;94600.31;;;15.00;74.06
52957;BME280;38819;42.692;23.342;2022-11-20T00:03:55;94567.34;;;15.01;71.80
52957;BME280;38819;42.692;23.342;2022-11-20T00:06:21;94585.28;;;15.15;70.05
52957;BME280;38819;42.692;23.342;2022-11-20T00:08:47;94589.94;;;15.27;70.40
52957;BME280;38819;42.692;23.342;2022-11-20T00:11:13;94575.69;;;15.42;67.78
52957;BME280;38819;42.692;23.342;2022-11-20T00:13:39;94587.03;;;15.56;67.59
52957;BME280;38819;42.692;23.342;2022-11-20T00:16:05;94586.81;;;15.62;68.03
52957;BME280;38819;42.692;23.342;2022-11-20T00:18:30;94597.13;;;15.68;68.58
52957;BME280;38819;42.692;23.342;2022-11-20T00:23:28;94582.06;;;15.71;69.51
52957;BME280;38819;42.692;23.342;2022-11-20T00:25:54;94549.63;;;15.66;67.82
52957;BME280;38819;42.692;23.342;2022-11-20T00:28:19;94563.59;;;15.89;65.31
52957;BME280;38819;42.692;23.342;2022-11-20T00:30:44;94574.47;;;16.01;65.17
52957;BME280;38819;42.692;23.342;2022-11-20T00:33:09;94584.44;;;16.09;64.95
52957;BME280;38819;42.692;23.342;2022-11-20T00:35:35;94584.53;;;16.13;65.64
52957;BME280;38819;42.692;23.342;2022-11-20T00:38:00;94578.06;;;16.18;65.15
52957;BME280;38819;42.692;23.342;2022-11-20T00:40:25;94558.66;;;16.19;64.79
52957;BME280;38819;42.692;23.342;2022-11-20T00:42:51;94551.41;;;16.11;65.69
52957;BME280;38819;42.692;23.342;2022-11-20T00:45:16;94568.66;;;16.03;66.79
52957;BME280;38819;42.692;23.342;2022-11-20T00:47:41;94580.00;;;16.05;65.89
52957;BME280;38819;42.692;23.342;2022-11-20T00:50:06;94580.22;;;16.12;64.83
52957;BME280;38819;42.692;23.342;2022-11-20T00:52:32;94546.59;;;16.20;61.76
52957;BME280;38819;42.692;23.342;2022-11-20T00:54:58;94558.03;;;16.38;62.31
52957;BME280;38819;42.692;23.342;2022-11-20T00:57:23;94561.19;;;16.40;61.61
52957;BME280;38819;42.692;23.342;2022-11-20T00:59:48;94582.06;;;16.48;61.94
52957;BME280;38819;42.692;23.342;2022-11-20T01:02:13;94575.34;;;16.58;60.10
52957;BME280;38819;42.692;23.342;2022-11-20T01:04:41;94528.50;;;16.68;62.03
52957;BME280;38819;42.692;23.342;2022-11-20T01:07:06;94540.22;;;16.69;60.89
52957;BME280;38819;42.692;23.342;2022-11-20T01:09:31;94573.22;;;16.80;59.83
52957;BME280;38819;42.692;23.342;2022-11-20T01:11:57;94560.34;;;16.80;60.74
52957;BME280;38819;42.692;23.342;2022-11-20T01:14:22;94558.22;;;16.86;59.91
52957;BME280;38819;42.692;23.342;2022-11-20T01:16:50;94564.22;;;16.92;58.68
52957;BME280;38819;42.692;23.342;2022-11-20T01:19:20;94561.22;;;16.97;59.52
52957;BME280;38819;42.692;23.342;2022-11-20T01:21:49;94554.34;;;16.87;60.17
52957;BME280;38819;42.692;23.342;2022-11-20T01:24:15;94546.97;;;16.88;58.74
52957;BME280;38819;42.692;23.342;2022-11-20T01:26:42;94542.94;;;16.97;58.89
52957;BME280;38819;42.692;23.342;2022-11-20T01:29:09;94546.97;;;17.03;57.57
52957;BME280;38819;42.692;23.342;2022-11-20T01:31:37;94531.75;;;17.18;56.86
52957;BME280;38819;42.692;23.342;2022-11-20T01:34:04;94531.94;;;17.26;56.88
52957;BME280;38819;42.692;23.342;2022-11-20T01:36:30;94516.53;;;17.33;56.76
52957;BME280;38819;42.692;23.342;2022-11-20T01:38:57;94517.88;;;17.39;56.86
52957;BME280;38819;42.692;23.342;2022-11-20T01:41:23;94504.56;;;17.38;57.27
52957;BME280;38819;42.692;23.342;2022-11-20T01:44:08;94486.16;;;17.35;56.43
52957;BME280;38819;42.692;23.342;2022-11-20T01:46:56;94517.59;;;17.29;58.42
52957;BME280;38819;42.692;23.342;2022-11-20T01:49:21;94533.53;;;17.27;58.34
52957;BME280;38819;42.692;23.342;2022-11-20T01:51:56;94516.00;;;17.12;58.98
52957;BME280;38819;42.692;23.342;2022-11-20T01:54:23;94523.16;;;17.16;59.02
52957;BME280;38819;42.692;23.342;2022-11-20T01:56:51;94529.66;;;17.12;59.32
52957;BME280;38819;42.692;23.342;2022-11-20T01:59:19;94519.00;;;17.07;59.36
52957;BME280;38819;42.692;23.342;2022-11-20T02:01:44;94527.63;;;17.09;57.77
52957;BME280;38819;42.692;23.342;2022-11-20T02:04:10;94524.19;;;17.12;58.20
52957;BME280;38819;42.692;23.342;2022-11-20T02:06:38;94519.88;;;17.27;56.55
52957;BME280;38819;42.692;23.342;2022-11-20T02:09:05;94530.53;;;17.32;57.80
52957;BME280;38819;42.692;23.342;2022-11-20T02:11:30;94517.94;;;17.27;57.04
52957;BME280;38819;42.692;23.342;2022-11-20T02:13:56;94515.50;;;17.38;56.34
52957;BME280;38819;42.692;23.342;2022-11-20T02:18:47;94522.00;;;17.49;55.86
52957;BME280;38819;42.692;23.342;2022-11-20T02:21:14;94523.66;;;17.54;55.83
52957;BME280;38819;42.692;23.342;2022-11-20T02:26:17;94543.81;;;17.65;55.79
52957;BME280;38819;42.692;23.342;2022-11-20T02:28:44;94522.31;;;17.64;55.90
52957;BME280;38819;42.692;23.342;2022-11-20T02:31:09;94532.47;;;17.63;55.76
52957;BME280;38819;42.692;23.342;2022-11-20T02:33:34;94513.19;;;17.56;55.58
52957;BME280;38819;42.692;23.342;2022-11-20T02:35:59;94517.56;;;17.60;55.37
52957;BME280;38819;42.692;23.342;2022-11-20T02:38:25;94541.25;;;17.72;55.46
52957;BME280;38819;42.692;23.342;2022-11-20T02:40:50;94539.88;;;17.63;55.89
52957;BME280;38819;42.692;23.342;2022-11-20T02:43:16;94546.91;;;17.64;56.43
52957;BME280;38819;42.692;23.342;2022-11-20T02:45:41;94535.63;;;17.65;56.46
52957;BME280;38819;42.692;23.342;2022-11-20T02:48:06;94550.69;;;17.59;56.04
52957;BME280;38819;42.692;23.342;2022-11-20T02:50:32;94552.28;;;17.60;55.87
52957;BME280;38819;42.692;23.342;2022-11-20T02:52:58;94544.88;;;17.60;56.23
52957;BME280;38819;42.692;23.342;2022-11-20T02:55:23;94545.16;;;17.55;56.42
52957;BME280;38819;42.692;23.342;2022-11-20T02:57:48;94565.16;;;17.59;57.31
52957;BME280;38819;42.692;23.342;2022-11-20T03:00:13;94558.44;;;17.57;57.26
52957;BME280;38819;42.692;23.342;2022-11-20T03:02:39;94563.03;;;17.53;57.88
52957;BME280;38819;42.692;23.342;2022-11-20T03:05:06;94582.75;;;17.62;57.30
52957;BME280;38819;42.692;23.342;2022-11-20T03:07:31;94582.22;;;17.56;56.81
52957;BME280;38819;42.692;23.342;2022-11-20T03:09:56;94585.75;;;17.57;57.18
52957;BME280;38819;42.692;23.342;2022-11-20T03:12:22;94580.56;;;17.68;56.89
52957;BME280;38819;42.692;23.342;2022-11-20T03:14:47;94584.09;;;17.68;57.13
52957;BME280;38819;42.692;23.342;2022-11-20T03:17:12;94602.84;;;17.70;57.18
52957;BME280;38819;42.692;23.342;2022-11-20T03:19:37;94588.84;;;17.71;57.01
52957;BME280;38819;42.692;23.342;2022-11-20T03:22:03;94579.25;;;17.77;56.95
52957;BME280;38819;42.692;23.342;2022-11-20T03:24:28;94608.03;;;17.75;56.83
52957;BME280;38819;42.692;23.342;2022-11-20T03:26:53;94604.53;;;17.74;57.15
52957;BME280;38819;42.692;23.342;2022-11-20T03:29:18;94602.22;;;17.76;57.13
52957;BME280;38819;42.692;23.342;2022-11-20T03:31:44;94601.72;;;17.71;56.77
52957;BME280;38819;42.692;23.342;2022-11-20T03:34:09;94606.44;;;17.74;56.67
52957;BME280;38819;42.692;23.342;2022-11-20T03:36:37;94601.16;;;17.81;56.80
52957;BME280;38819;42.692;23.342;2022-11-20T03:39:02;94594.91;;;17.81;56.59
52957;BME280;38819;42.692;23.342;2022-11-20T03:41:29;94610.16;;;17.82;56.95
52957;BME280;38819;42.692;23.342;2022-11-20T03:43:55;94612.38;;;17.76;57.04
52957;BME280;38819;42.692;23.342;2022-11-20T03:46:21;94617.38;;;17.74;57.54
52957;BME280;38819;42.692;23.342;2022-11-20T03:48:47;94619.03;;;17.78;57.84
52957;BME280;38819;42.692;23.342;2022-11-20T03:51:14;94616.31;;;17.78;57.37
52957;BME280;38819;42.692;23.342;2022-11-20T03:53:40;94603.91;;;17.65;58.08
52957;BME280;38819;42.692;23.342;2022-11-20T03:56:06;94597.38;;;17.70;57.79
52957;BME280;38819;42.692;23.342;2022-11-20T03:58:32;94601.78;;;17.74;57.92
52957;BME280;38819;42.692;23.342;2022-11-20T04:00:57;94600.38;;;17.81;57.66
52957;BME280;38819;42.692;23.342;2022-11-20T04:03:23;94614.47;;;17.83;57.59
52957;BME280;38819;42.692;23.342;2022-11-20T04:05:48;94593.59;;;17.74;57.26
52957;BME280;38819;42.692;23.342;2022-11-20T04:08:13;94619.31;;;17.73;57.90
52957;BME280;38819;42.692;23.342;2022-11-20T04:10:39;94612.00;;;17.77;56.87
52957;BME280;38819;42.692;23.342;2022-11-20T04:13:04;94621.00;;;17.94;56.02
52957;BME280;38819;42.692;23.342;2022-11-20T04:15:29;94620.66;;;17.95;56.49
52957;BME280;38819;42.692;23.342;2022-11-20T04:17:54;94613.44;;;17.87;56.89
52957;BME280;38819;42.692;23.342;2022-11-20T04:20:20;94611.13;;;17.73;57.27
52957;BME280;38819;42.692;23.342;2022-11-20T04:22:45;94609.53;;;17.72;57.88
52957;BME280;38819;42.692;23.342;2022-11-20T04:25:10;94599.41;;;17.57;58.41
52957;BME280;38819;42.692;23.342;2022-11-20T04:27:36;94605.75;;;17.61;58.46
52957;BME280;38819;42.692;23.342;2022-11-20T04:30:01;94602.47;;;17.55;57.60
52957;BME280;38819;42.692;23.342;2022-11-20T04:32:26;94594.75;;;17.57;57.73
52957;BME280;38819;42.692;23.342;2022-11-20T04:34:52;94617.13;;;17.63;57.51
52957;BME280;38819;42.692;23.342;2022-11-20T04:37:17;94625.41;;;17.51;58.47
52957;BME280;38819;42.692;23.342;2022-11-20T04:39:42;94620.03;;;17.54;56.79
52957;BME280;38819;42.692;23.342;2022-11-20T04:42:08;94631.19;;;17.65;56.85
52957;BME280;38819;42.692;23.342;2022-11-20T04:44:59;94624.25;;;17.68;56.98
52957;BME280;38819;42.692;23.342;2022-11-20T04:47:24;94612.63;;;17.71;57.18
52957;BME280;38819;42.692;23.342;2022-11-20T04:49:50;94612.97;;;17.69;57.61
52957;BME280;38819;42.692;23.342;2022-11-20T04:52:15;94610.78;;;17.75;57.37
52957;BME280;38819;42.692;23.342;2022-11-20T04:54:40;94601.34;;;17.72;57.90
52957;BME280;38819;42.692;23.342;2022-11-20T04:57:06;94602.94;;;17.57;58.77
52957;BME280;38819;42.692;23.342;2022-11-20T04:59:31;94598.88;;;17.51;57.92
52957;BME280;38819;42.692;23.342;2022-11-20T05:01:56;94598.28;;;17.58;58.52
52957;BME280;38819;42.692;23.342;2022-11-20T05:04:21;94592.03;;;17.57;58.15
52957;BME280;38819;42.692;23.342;2022-11-20T05:06:47;94574.91;;;17.60;57.60
52957;BME280;38819;42.692;23.342;2022-11-20T05:09:12;94581.25;;;17.49;58.21
52957;BME280;38819;42.692;23.342;2022-11-20T05:11:38;94579.94;;;17.58;58.08
52957;BME280;38819;42.692;23.342;2022-11-20T05:14:03;94590.44;;;17.56;57.85
52957;BME280;38819;42.692;23.342;2022-11-20T05:16:28;94587.25;;;17.54;57.41
52957;BME280;38819;42.692;23.342;2022-11-20T05:18:54;94561.09;;;17.53;57.79
52957;BME280;38819;42.692;23.342;2022-11-20T05:21:19;94580.47;;;17.48;58.29
52957;BME280;38819;42.692;23.342;2022-11-20T05:23:45;94577.13;;;17.55;58.19
52957;BME280;38819;42.692;23.342;2022-11-20T05:26:17;94575.19;;;17.55;58.38
52957;BME280;38819;42.692;23.342;2022-11-20T05:28:43;94579.50;;;17.56;58.51
52957;BME280;38819;42.692;23.342;2022-11-20T05:31:09;94560.66;;;17.51;58.17
52957;BME280;38819;42.692;23.342;2022-11-20T05:33:35;94564.97;;;17.52;58.25
52957;BME280;38819;42.692;23.342;2022-11-20T05:36:01;94576.31;;;17.38;59.75
52957;BME280;38819;42.692;23.342;2022-11-20T05:38:26;94586.53;;;17.41;60.58
52957;BME280;38819;42.692;23.342;2022-11-20T05:40:51;94593.59;;;17.43;60.92
52957;BME280;38819;42.692;23.342;2022-11-20T05:43:16;94591.84;;;17.34;61.84
52957;BME280;38819;42.692;23.342;2022-11-20T05:45:42;94589.63;;;17.24;62.68
52957;BME280;38819;42.692;23.342;2022-11-20T05:48:07;94578.41;;;17.13;63.41
52957;BME280;38819;42.692;23.342;2022-11-20T05:50:32;94589.84;;;17.03;63.90
52957;BME280;38819;42.692;23.342;2022-11-20T05:52:58;94589.50;;;17.04;64.15
52957;BME280;38819;42.692;23.342;2022-11-20T05:55:24;94581.34;;;16.92;64.57
52957;BME280;38819;42.692;23.342;2022-11-20T05:57:50;94585.84;;;16.84;64.62
52957;BME280;38819;42.692;23.342;2022-11-20T06:00:15;94580.69;;;16.83;64.38
52957;BME280;38819;42.692;23.342;2022-11-20T06:02:40;94575.16;;;16.79;64.86
52957;BME280;38819;42.692;23.342;2022-11-20T06:05:06;94593.44;;;16.79;64.71
52957;BME280;38819;42.692;23.342;2022-11-20T06:07:31;94587.53;;;16.77;63.92
52957;BME280;38819;42.692;23.342;2022-11-20T06:09:56;94577.88;;;16.79;64.42
52957;BME280;38819;42.692;23.342;2022-11-20T06:12:21;94582.19;;;16.80;63.73
52957;BME280;38819;42.692;23.342;2022-11-20T06:14:47;94588.56;;;16.84;63.66
52957;BME280;38819;42.692;23.342;2022-11-20T06:17:13;94586.16;;;16.83;63.61
52957;BME280;38819;42.692;23.342;2022-11-20T06:19:38;94580.91;;;16.90;63.49
52957;BME280;38819;42.692;23.342;2022-11-20T06:22:03;94585.94;;;16.88;64.02
52957;BME280;38819;42.692;23.342;2022-11-20T06:24:29;94583.09;;;16.84;63.89
52957;BME280;38819;42.692;23.342;2022-11-20T06:26:54;94576.84;;;16.84;63.58
52957;BME280;38819;42.692;23.342;2022-11-20T06:29:19;94590.94;;;16.86;63.44
52957;BME280;38819;42.692;23.342;2022-11-20T06:31:44;94592.50;;;16.87;62.80
52957;BME280;38819;42.692;23.342;2022-11-20T06:34:10;94597.72;;;16.92;63.50
52957;BME280;38819;42.692;23.342;2022-11-20T06:36:35;94595.47;;;16.94;63.24
52957;BME280;38819;42.692;23.342;2022-11-20T06:39:00;94591.56;;;16.95;62.81
52957;BME280;38819;42.692;23.342;2022-11-20T06:41:26;94595.22;;;16.99;63.09
52957;BME280;38819;42.692;23.342;2022-11-20T06:43:51;94590.09;;;16.98;63.17
52957;BME280;38819;42.692;23.342;2022-11-20T06:46:17;94590.09;;;16.98;63.10
52957;BME280;38819;42.692;23.342;2022-11-20T06:48:42;94597.69;;;17.04;62.64
52957;BME280;38819;42.692;23.342;2022-11-20T06:51:08;94602.63;;;17.15;62.77
52957;BME280;38819;42.692;23.342;2022-11-20T06:53:33;94604.41;;;17.23;62.31
52957;BME280;38819;42.692;23.342;2022-11-20T06:55:59;94603.63;;;17.22;61.62
52957;BME280;38819;42.692;23.342;2022-11-20T06:58:28;94610.25;;;17.37;61.44
52957;BME280;38819;42.692;23.342;2022-11-20T07:00:54;94606.25;;;17.35;61.41
52957;BME280;38819;42.692;23.342;2022-11-20T07:03:22;94609.97;;;17.43;61.38
52957;BME280;38819;42.692;23.342;2022-11-20T07:05:48;94621.25;;;17.41;61.72
52957;BME280;38819;42.692;23.342;2022-11-20T07:08:13;94611.13;;;17.41;61.79
52957;BME280;38819;42.692;23.342;2022-11-20T07:10:38;94619.03;;;17.47;61.69
52957;BME280;38819;42.692;23.342;2022-11-20T07:13:04;94625.84;;;17.53;61.34
52957;BME280;38819;42.692;23.342;2022-11-20T07:15:29;94627.88;;;17.56;60.97
52957;BME280;38819;42.692;23.342;2022-11-20T07:17:55;94627.59;;;17.61;60.68
52957;BME280;38819;42.692;23.342;2022-11-20T07:20:20;94624.41;;;17.59;60.18
52957;BME280;38819;42.692;23.342;2022-11-20T07:22:46;94628.91;;;17.51;60.15
52957;BME280;38819;42.692;23.342;2022-11-20T07:25:11;94630.25;;;17.57;60.44
52957;BME280;38819;42.692;23.342;2022-11-20T07:27:36;94628.75;;;17.60;59.72
52957;BME280;38819;42.692;23.342;2022-11-20T07:30:02;94637.72;;;17.60;59.78
52957;BME280;38819;42.692;23.342;2022-11-20T07:32:27;94637.28;;;17.58;60.08
52957;BME280;38819;42.692;23.342;2022-11-20T07:34:53;94641.78;;;17.67;59.85
52957;BME280;38819;42.692;23.342;2022-11-20T07:37:18;94632.88;;;17.70;59.37
52957;BME280;38819;42.692;23.342;2022-11-20T07:39:43;94638.69;;;17.68;58.97
52957;BME280;38819;42.692;23.342;2022-11-20T07:42:09;94636.50;;;17.58;59.34
52957;BME280;38819;42.692;23.342;2022-11-20T07:44:34;94639.75;;;17.48;59.42
52957;BME280;38819;42.692;23.342;2022-11-20T07:47:00;94643.09;;;17.41;59.35
52957;BME280;38819;42.692;23.342;2022-11-20T07:49:25;94637.97;;;17.39;59.33
52957;BME280;38819;42.692;23.342;2022-11-20T07:51:51;94635.69;;;17.41;59.56
52957;BME280;38819;42.692;23.342;2022-11-20T07:54:18;94630.91;;;17.38;59.33
52957;BME280;38819;42.692;23.342;2022-11-20T07:56:44;94639.19;;;17.42;59.46
52957;BME280;38819;42.692;23.342;2022-11-20T07:59:09;94633.13;;;17.33;59.69
52957;BME280;38819;42.692;23.342;2022-11-20T08:01:36;94641.50;;;17.40;59.45
52957;BME280;38819;42.692;23.342;2022-11-20T08:04:02;94629.22;;;17.34;59.82
52957;BME280;38819;42.692;23.342;2022-11-20T08:06:27;94628.09;;;17.35;60.21
52957;BME280;38819;42.692;23.342;2022-11-20T08:08:52;94635.25;;;17.39;60.34
52957;BME280;38819;42.692;23.342;2022-11-20T08:11:17;94629.22;;;17.34;60.21
52957;BME280;38819;42.692;23.342;2022-11-20T08:14:01;94621.03;;;17.34;60.46
52957;BME280;38819;42.692;23.342;2022-11-20T08:19:04;94620.09;;;17.42;59.90
52957;BME280;38819;42.692;23.342;2022-11-20T08:21:32;94616.47;;;17.38;60.37
52957;BME280;38819;42.692;23.342;2022-11-20T08:23:58;94609.88;;;17.39;59.88
52957;BME280;38819;42.692;23.342;2022-11-20T08:26:24;94619.66;;;17.40;58.73
52957;BME280;38819;42.692;23.342;2022-11-20T08:28:49;94625.41;;;17.51;58.71
52957;BME280;38819;42.692;23.342;2022-11-20T08:31:14;94639.56;;;17.56;58.39
52957;BME280;38819;42.692;23.342;2022-11-20T08:33:40;94643.28;;;17.64;58.59
52957;BME280;38819;42.692;23.342;2022-11-20T08:36:05;94653.06;;;17.65;58.30
52957;BME280;38819;42.692;23.342;2022-11-20T08:38:31;94657.63;;;17.61;59.04
52957;BME280;38819;42.692;23.342;2022-11-20T08:41:00;94656.13;;;17.64;59.13
52957;BME280;38819;42.692;23.342;2022-11-20T08:43:45;94643.47;;;17.71;59.34
52957;BME280;38819;42.692;23.342;2022-11-20T08:46:10;94659.94;;;17.75;58.80
52957;BME280;38819;42.692;23.342;2022-11-20T08:48:35;94670.78;;;17.71;59.33
52957;BME280;38819;42.692;23.342;2022-11-20T08:51:01;94661.06;;;17.74;58.61
52957;BME280;38819;42.692;23.342;2022-11-20T08:53:26;94666.97;;;17.60;59.76
52957;BME280;38819;42.692;23.342;2022-11-20T08:55:52;94697.09;;;17.64;61.21
52957;BME280;38819;42.692;23.342;2022-11-20T08:58:17;94682.66;;;17.63;62.56
52957;BME280;38819;42.692;23.342;2022-11-20T09:00:42;94676.28;;;17.59;63.56
52957;BME280;38819;42.692;23.342;2022-11-20T09:03:08;94664.66;;;17.62;63.73
52957;BME280;38819;42.692;23.342;2022-11-20T09:05:33;94679.03;;;17.59;63.86
52957;BME280;38819;42.692;23.342;2022-11-20T09:07:58;94691.97;;;17.62;64.00
52957;BME280;38819;42.692;23.342;2022-11-20T09:10:24;94686.38;;;17.71;64.13
52957;BME280;38819;42.692;23.342;2022-11-20T09:12:50;94675.19;;;17.76;64.21
52957;BME280;38819;42.692;23.342;2022-11-20T09:15:16;94684.25;;;17.80;64.01
52957;BME280;38819;42.692;23.342;2022-11-20T09:17:42;94685.16;;;17.84;64.93
52957;BME280;38819;42.692;23.342;2022-11-20T09:20:07;94690.97;;;17.83;64.34
52957;BME280;38819;42.692;23.342;2022-11-20T09:22:33;94687.41;;;17.82;64.99
52957;BME280;38819;42.692;23.342;2022-11-20T09:24:58;94690.84;;;17.79;65.12
52957;BME280;38819;42.692;23.342;2022-11-20T09:27:23;94689.44;;;17.69;63.02
52957;BME280;38819;42.692;23.342;2022-11-20T09:29:49;94688.13;;;17.63;64.07
52957;BME280;38819;42.692;23.342;2022-11-20T09:32:14;94688.69;;;17.40;65.83
52957;BME280;38819;42.692;23.342;2022-11-20T09:34:39;94676.09;;;17.36;63.57
52957;BME280;38819;42.692;23.342;2022-11-20T09:37:04;94679.22;;;17.22;64.46
52957;BME280;38819;42.692;23.342;2022-11-20T09:39:30;94672.91;;;17.34;64.39
52957;BME280;38819;42.692;23.342;2022-11-20T09:42:02;94660.06;;;17.34;64.46
52957;BME280;38819;42.692;23.342;2022-11-20T09:55:24;94652.19;;;17.17;65.76
52957;BME280;38819;42.692;23.342;2022-11-20T09:57:51;94628.53;;;16.80;70.09
52957;BME280;38819;42.692;23.342;2022-11-20T10:00:17;94642.31;;;16.72;70.70
52957;BME280;38819;42.692;23.342;2022-11-20T10:03:04;94640.34;;;16.44;72.94
52957;BME280;38819;42.692;23.342;2022-11-20T10:05:37;94634.53;;;16.45;73.83
52957;BME280;38819;42.692;23.342;2022-11-20T10:08:21;94626.75;;;16.32;75.20
52957;BME280;38819;42.692;23.342;2022-11-20T10:10:56;94629.94;;;16.21;76.24
52957;BME280;38819;42.692;23.342;2022-11-20T10:20:59;94604.53;;;16.05;77.21
52957;BME280;38819;42.692;23.342;2022-11-20T10:31:13;94609.22;;;16.45;74.20
52957;BME280;38819;42.692;23.342;2022-11-20T10:33:40;94616.81;;;16.52;73.48
52957;BME280;38819;42.692;23.342;2022-11-20T10:38:39;94623.47;;;16.66;73.38
52957;BME280;38819;42.692;23.342;2022-11-20T10:41:05;94617.44;;;16.73;73.13
52957;BME280;38819;42.692;23.342;2022-11-20T10:43:50;94633.00;;;16.73;73.51
52957;BME280;38819;42.692;23.342;2022-11-20T10:46:18;94626.53;;;16.65;73.69
52957;BME280;38819;42.692;23.342;2022-11-20T10:48:44;94629.59;;;16.76;73.82
52957;BME280;38819;42.692;23.342;2022-11-20T10:51:30;94624.50;;;16.74;74.37
52957;BME280;38819;42.692;23.342;2022-11-20T11:01:56;94614.94;;;16.68;75.49
52957;BME280;38819;42.692;23.342;2022-11-20T11:07:04;94662.00;;;16.65;76.22
52957;BME280;38819;42.692;23.342;2022-11-20T11:09:33;94679.38;;;16.60;75.50
52957;BME280;38819;42.692;23.342;2022-11-20T11:12:00;94666.00;;;16.43;70.97
52957;BME280;38819;42.692;23.342;2022-11-20T11:14:25;94683.06;;;16.27;71.28
52957;BME280;38819;42.692;23.342;2022-11-20T11:16:53;94690.22;;;16.20;71.35
52957;BME280;38819;42.692;23.342;2022-11-20T11:19:18;94700.06;;;16.12;71.74
52957;BME280;38819;42.692;23.342;2022-11-20T11:21:51;94684.44;;;16.09;72.93
52957;BME280;38819;42.692;23.342;2022-11-20T11:24:21;94686.47;;;16.00;74.13
52957;BME280;38819;42.692;23.342;2022-11-20T11:26:57;94684.38;;;15.72;71.74
52957;BME280;38819;42.692;23.342;2022-11-20T11:29:23;94674.41;;;15.76;70.22
52957;BME280;38819;42.692;23.342;2022-11-20T11:32:02;94652.84;;;15.71;72.15
52957;BME280;38819;42.692;23.342;2022-11-20T11:34:28;94682.56;;;15.64;71.22
52957;BME280;38819;42.692;23.342;2022-11-20T11:36:56;94664.38;;;15.55;71.66
52957;BME280;38819;42.692;23.342;2022-11-20T11:39:22;94660.84;;;15.55;72.16
52957;BME280;38819;42.692;23.342;2022-11-20T11:41:48;94658.13;;;15.43;72.54
52957;BME280;38819;42.692;23.342;2022-11-20T11:44:18;94643.44;;;15.23;70.70
52957;BME280;38819;42.692;23.342;2022-11-20T11:47:02;94648.34;;;15.29;71.80
52957;BME280;38819;42.692;23.342;2022-11-20T11:49:28;94657.16;;;15.26;73.88
52957;BME280;38819;42.692;23.342;2022-11-20T11:54:27;94666.38;;;15.34;71.10
52957;BME280;38819;42.692;23.342;2022-11-20T11:56:54;94651.97;;;15.33;70.52
52957;BME280;38819;42.692;23.342;2022-11-20T12:00:08;94662.28;;;15.40;71.84
52957;BME280;38819;42.692;23.342;2022-11-20T12:02:11;94650.16;;;15.37;73.78
52957;BME280;38819;42.692;23.342;2022-11-20T12:04:42;94640.41;;;15.36;73.88
52957;BME280;38819;42.692;23.342;2022-11-20T12:10:21;94655.72;;;15.41;67.72
52957;BME280;38819;42.692;23.342;2022-11-20T12:12:48;94659.28;;;15.54;66.67
52957;BME280;38819;42.692;23.342;2022-11-20T12:15:20;94645.13;;;15.61;66.97
52957;BME280;38819;42.692;23.342;2022-11-20T12:17:47;94639.34;;;15.62;68.52
52957;BME280;38819;42.692;23.342;2022-11-20T12:20:13;94646.94;;;15.69;70.20
52957;BME280;38819;42.692;23.342;2022-11-20T12:30:08;94645.22;;;15.64;67.60
52957;BME280;38819;42.692;23.342;2022-11-20T12:53:39;94595.56;;;14.63;73.57
52957;BME280;38819;42.692;23.342;2022-11-20T12:56:18;94610.44;;;14.57;75.61
52957;BME280;38819;42.692;23.342;2022-11-20T12:58:51;94607.59;;;14.12;77.66
52957;BME280;38819;42.692;23.342;2022-11-20T13:04:08;94608.06;;;13.84;80.04
52957;BME280;38819;42.692;23.342;2022-11-20T13:06:37;94608.19;;;13.58;81.21
52957;BME280;38819;42.692;23.342;2022-11-20T13:09:04;94605.50;;;13.49;81.30
52957;BME280;38819;42.692;23.342;2022-11-20T13:11:37;94570.47;;;13.26;82.34
52957;BME280;38819;42.692;23.342;2022-11-20T13:16:53;94556.94;;;13.18;83.44
52957;BME280;38819;42.692;23.342;2022-11-20T13:19:21;94580.19;;;13.27;83.20
52957;BME280;38819;42.692;23.342;2022-11-20T13:21:47;94602.81;;;13.49;80.27
52957;BME280;38819;42.692;23.342;2022-11-20T13:29:29;94577.50;;;13.66;80.46
52957;BME280;38819;42.692;23.342;2022-11-20T13:32:28;94594.22;;;13.77;79.85
52957;BME280;38819;42.692;23.342;2022-11-20T13:34:56;94629.59;;;13.89;79.43
52957;BME280;38819;42.692;23.342;2022-11-20T13:37:35;94601.66;;;13.88;78.23
52957;BME280;38819;42.692;23.342;2022-11-20T13:42:33;94625.25;;;14.18;79.73
52957;BME280;38819;42.692;23.342;2022-11-20T13:45:07;94619.91;;;14.30;78.49
52957;BME280;38819;42.692;23.342;2022-11-20T13:47:33;94593.00;;;14.16;80.15
52957;BME280;38819;42.692;23.342;2022-11-20T13:50:00;94610.88;;;14.17;79.78
52957;BME280;38819;42.692;23.342;2022-11-20T13:59:53;94628.53;;;14.32;78.45
52957;BME280;38819;42.692;23.342;2022-11-20T14:02:22;94637.34;;;14.50;78.47
52957;BME280;38819;42.692;23.342;2022-11-20T14:04:48;94645.59;;;14.62;79.21
52957;BME280;38819;42.692;23.342;2022-11-20T14:07:15;94631.47;;;14.69;80.05
52957;BME280;38819;42.692;23.342;2022-11-20T14:09:49;94640.88;;;14.72;79.38
52957;BME280;38819;42.692;23.342;2022-11-20T14:12:15;94622.34;;;14.86;76.33
52957;BME280;38819;42.692;23.342;2022-11-20T14:14:47;94622.91;;;14.79;76.92
52957;BME280;38819;42.692;23.342;2022-11-20T14:17:21;94621.13;;;14.84;77.53
52957;BME280;38819;42.692;23.342;2022-11-20T14:19:47;94607.19;;;14.85;76.39
52957;BME280;38819;42.692;23.342;2022-11-20T14:22:23;94624.41;;;14.89;76.59
52957;BME280;38819;42.692;23.342;2022-11-20T14:24:49;94620.09;;;14.88;76.69
52957;BME280;38819;42.692;23.342;2022-11-20T14:27:25;94607.56;;;14.96;76.91
52957;BME280;38819;42.692;23.342;2022-11-20T14:29:50;94617.75;;;14.99;76.35
52957;BME280;38819;42.692;23.342;2022-11-20T14:32:17;94609.59;;;14.99;76.03
52957;BME280;38819;42.692;23.342;2022-11-20T14:34:43;94628.56;;;15.08;75.98